createdAt,value
2022-10-01T00:00:55.782Z,11.1
2022-10-01T00:05:53.930Z,11.2
2022-10-01T00:10:52.070Z,11.1
2022-10-01T00:15:50.481Z,10.9
2022-10-01T00:20:48.485Z,10.9
2022-10-01T00:25:46.618Z,10.8
2022-10-01T00:30:44.628Z,10.8
2022-10-01T00:35:42.688Z,10.8
2022-10-01T00:40:40.705Z,10.6
2022-10-01T00:45:38.674Z,10.6
2022-10-01T00:50:36.780Z,10.5
2022-10-01T00:55:34.891Z,10.5
2022-10-01T01:00:33.001Z,10.6
2022-10-01T01:05:30.952Z,10.6
2022-10-01T01:10:28.945Z,10.5
2022-10-01T01:15:27.179Z,10.7
2022-10-01T01:20:25.351Z,10.7
2022-10-01T01:25:23.554Z,10.8
2022-10-01T01:30:21.730Z,11
2022-10-01T01:35:20.011Z,11
2022-10-01T01:40:18.271Z,11.2
2022-10-01T01:45:16.460Z,11.2
2022-10-01T01:50:14.605Z,11
2022-10-01T01:55:12.610Z,10.9
2022-10-01T02:00:10.706Z,10.9
2022-10-01T02:05:08.321Z,10.7
2022-10-01T02:10:06.443Z,10.5
2022-10-01T02:15:04.610Z,10.6
2022-10-01T02:20:02.538Z,10.6
2022-10-01T02:25:00.588Z,10.7
2022-10-01T02:29:58.634Z,10.7
2022-10-01T02:34:56.730Z,10.6
2022-10-01T02:39:54.969Z,10.7
2022-10-01T02:44:53.116Z,10.9
2022-10-01T02:49:51.569Z,11
2022-10-01T02:54:49.955Z,10.9
2022-10-01T02:59:48.062Z,11
2022-10-01T03:04:46.192Z,11.1
2022-10-01T03:09:44.207Z,11.1
2022-10-01T03:14:42.271Z,11.1
2022-10-01T03:19:40.249Z,11.2
2022-10-01T03:24:38.351Z,11.3
2022-10-01T03:29:36.355Z,11
2022-10-01T03:34:34.352Z,10.9
2022-10-01T03:39:32.358Z,10.9
2022-10-01T03:44:30.277Z,11
2022-10-01T03:49:28.371Z,11.7
2022-10-01T03:54:26.686Z,12.1
2022-10-01T03:59:24.957Z,12.2
2022-10-01T04:04:23.084Z,12.1
2022-10-01T04:09:20.978Z,11.9
2022-10-01T04:14:18.952Z,11.7
2022-10-01T04:19:16.938Z,11.7
2022-10-01T04:24:15.200Z,11.8
2022-10-01T04:29:13.673Z,12.1
2022-10-01T04:34:11.893Z,12.2
2022-10-01T04:39:09.888Z,12.3
2022-10-01T04:44:08.227Z,12.5
2022-10-01T04:49:06.869Z,13.1
2022-10-01T04:54:09.085Z,13.7
2022-10-01T04:59:06.435Z,13.8
2022-10-01T05:04:04.663Z,14
2022-10-01T05:14:38.471Z,14.9
2022-10-01T05:19:36.599Z,15.9
2022-10-01T05:24:35.854Z,16.9
2022-10-01T05:29:33.946Z,16.8
2022-10-01T05:34:32.110Z,16.5
2022-10-01T05:39:30.763Z,17.5
2022-10-01T05:44:31.341Z,21.5
2022-10-01T05:49:34.861Z,26.8
2022-10-01T05:54:35.150Z,27.8
2022-10-01T05:59:32.790Z,26.5
2022-10-01T06:04:28.778Z,24.8
2022-10-01T06:09:25.081Z,23.4
2022-10-01T06:14:22.903Z,23.5
2022-10-01T06:19:20.986Z,23.3
2022-10-01T06:24:18.738Z,22.9
2022-10-01T06:29:16.993Z,24.1
2022-10-01T06:34:17.279Z,25.8
2022-10-01T06:39:17.725Z,30
2022-10-01T06:44:20.527Z,34.1
2022-10-01T06:49:17.135Z,31.2
2022-10-01T06:54:12.954Z,30.1
2022-10-01T06:59:10.834Z,30.4
2022-10-01T07:04:08.912Z,29.5
2022-10-01T07:09:06.115Z,28.5
2022-10-01T07:14:03.525Z,28.2
2022-10-01T07:19:02.346Z,29
2022-10-01T07:24:01.282Z,30
2022-10-01T07:28:59.367Z,29.4
2022-10-01T07:33:56.490Z,28.3
2022-10-01T07:38:52.805Z,26.3
2022-10-01T07:43:49.068Z,24.4
2022-10-01T07:48:45.701Z,22.8
2022-10-01T07:53:42.386Z,21
2022-10-01T07:58:39.365Z,20
2022-10-01T08:03:37.171Z,19.8
2022-10-01T08:08:34.927Z,19.7
2022-10-01T08:13:32.818Z,19.5
2022-10-01T08:18:30.692Z,19.3
2022-10-01T08:23:28.642Z,19.2
2022-10-01T08:28:26.587Z,18.9
2022-10-01T08:33:24.482Z,18.9
2022-10-01T08:38:22.713Z,19
2022-10-01T08:43:21.173Z,19.2
2022-10-01T08:48:19.342Z,19.3
2022-10-01T08:53:17.519Z,19.1
2022-10-01T08:58:15.609Z,19
2022-10-01T09:03:13.472Z,18.7
2022-10-01T09:08:11.364Z,18.4
2022-10-01T09:13:09.183Z,18
2022-10-01T09:18:06.831Z,17.6
2022-10-01T09:23:04.730Z,17.2
2022-10-01T09:28:02.735Z,16.9
2022-10-01T09:33:00.706Z,16.9
2022-10-01T09:37:58.878Z,16.8
2022-10-01T09:42:57.038Z,17
2022-10-01T09:47:55.298Z,17
2022-10-01T09:52:53.546Z,17.1
2022-10-01T09:57:51.712Z,17.3
2022-10-01T10:02:50.075Z,17.2
2022-10-01T10:07:47.716Z,17.3
2022-10-01T10:12:46.624Z,17.2
2022-10-01T10:17:44.769Z,17.7
2022-10-01T10:22:42.740Z,17.6
2022-10-01T10:27:40.764Z,17.5
2022-10-01T10:32:38.855Z,17.9
2022-10-01T10:37:37.147Z,18
2022-10-01T10:42:35.099Z,17.8
2022-10-01T10:47:33.236Z,18
2022-10-01T10:52:31.734Z,18.3
2022-10-01T10:57:30.170Z,18.8
2022-10-01T11:02:29.171Z,20.3
2022-10-01T11:07:28.482Z,20.6
2022-10-01T11:12:26.683Z,21.2
2022-10-01T11:17:26.020Z,22.4
2022-10-01T11:22:24.533Z,23
2022-10-01T11:27:22.109Z,22.4
2022-10-01T11:32:19.471Z,21.7
2022-10-01T11:37:17.594Z,21.4
2022-10-01T11:42:16.349Z,22.4
2022-10-01T11:47:15.047Z,22.8
2022-10-01T11:52:13.681Z,23.4
2022-10-01T11:57:12.517Z,24.1
2022-10-01T12:02:10.689Z,23.5
2022-10-01T12:07:07.780Z,22.2
2022-10-01T12:12:05.643Z,21.9
2022-10-01T12:17:06.557Z,24.6
2022-10-01T12:22:05.070Z,24.8
2022-10-01T12:27:03.829Z,25.5
2022-10-01T12:32:05.228Z,28.8
2022-10-01T12:37:02.701Z,26.9
2022-10-01T12:42:01.311Z,27.6
2022-10-01T12:46:58.855Z,26.7
2022-10-01T12:51:56.308Z,26.2
2022-10-01T12:56:54.551Z,26.7
2022-10-01T13:01:53.735Z,27.6
2022-10-01T13:06:52.325Z,28.1
2022-10-01T13:11:51.247Z,28.3
2022-10-01T13:16:48.895Z,27.9
2022-10-01T13:21:47.436Z,27.9
2022-10-01T13:26:44.804Z,26.9
2022-10-01T13:31:43.058Z,26.8
2022-10-01T13:36:41.632Z,26.9
2022-10-01T13:41:40.224Z,27.4
2022-10-01T13:46:39.568Z,27.7
2022-10-01T13:51:37.447Z,26.9
2022-10-01T13:56:36.021Z,26.8
2022-10-01T14:01:33.356Z,26
2022-10-01T14:06:31.241Z,25.5
2022-10-01T14:11:29.620Z,24.9
2022-10-01T14:16:27.171Z,24.5
2022-10-01T14:21:25.252Z,24.7
2022-10-01T14:26:23.807Z,24.6
2022-10-01T14:31:22.213Z,24.7
2022-10-01T14:36:20.288Z,24.4
2022-10-01T14:41:18.241Z,23.9
2022-10-01T14:46:16.338Z,23.7
2022-10-01T14:51:14.218Z,23.3
2022-10-01T14:56:12.364Z,22.9
2022-10-01T15:01:10.252Z,22.3
2022-10-01T15:06:08.043Z,21.7
2022-10-01T15:11:05.721Z,21
2022-10-01T15:16:03.564Z,20.6
2022-10-01T15:21:01.538Z,20.3
2022-10-01T15:25:59.347Z,20.2
2022-10-01T15:30:57.412Z,19.9
2022-10-01T15:35:55.262Z,19.6
2022-10-01T15:40:53.129Z,19.4
2022-10-01T15:45:51.038Z,19.4
2022-10-01T15:50:49.017Z,19
2022-10-01T15:55:47.179Z,18.8
2022-10-01T16:00:45.019Z,18.5
2022-10-01T16:05:42.846Z,18.3
2022-10-01T16:10:40.799Z,18
2022-10-01T16:15:38.658Z,17.8
2022-10-01T16:20:36.886Z,17.6
2022-10-01T16:25:34.655Z,17.4
2022-10-01T16:30:32.748Z,17.2
2022-10-01T16:35:30.793Z,17
2022-10-01T16:40:28.706Z,16.9
2022-10-01T16:45:26.932Z,16.7
2022-10-01T16:50:24.693Z,16.5
2022-10-01T16:55:22.670Z,16.4
2022-10-01T17:00:20.852Z,16.4
2022-10-01T17:05:19.069Z,16.5
2022-10-01T17:10:17.473Z,16.6
2022-10-01T17:15:15.869Z,16.7
2022-10-01T17:20:14.165Z,16.8
2022-10-01T17:25:12.333Z,16.7
2022-10-01T17:30:10.335Z,16.8
2022-10-01T17:35:08.657Z,16.9
2022-10-01T17:40:06.877Z,17
2022-10-01T17:45:05.433Z,17.2
2022-10-01T17:50:03.629Z,17.4
2022-10-01T17:55:01.961Z,17.5
2022-10-01T18:08:55.379Z,18.3
2022-10-01T18:13:47.802Z,17.7
2022-10-01T18:23:43.871Z,17.1
2022-10-01T18:28:42.005Z,17.1
2022-10-01T18:33:40.114Z,17.1
2022-10-01T18:38:38.317Z,17.1
2022-10-01T18:43:36.473Z,17.1
2022-10-01T18:48:34.534Z,17.1
2022-10-01T18:53:32.674Z,17.1
2022-10-01T18:58:31.040Z,17.2
2022-10-01T19:03:29.079Z,17.4
2022-10-01T19:08:27.258Z,17.4
2022-10-01T19:13:25.466Z,17.4
2022-10-01T19:18:23.715Z,17.5
2022-10-01T19:23:22.086Z,17.6
2022-10-01T19:28:20.297Z,17.6
2022-10-01T19:33:18.554Z,17.6
2022-10-01T19:38:16.634Z,17.4
2022-10-01T19:43:14.833Z,17.1
2022-10-01T19:48:12.927Z,16.8
2022-10-01T19:53:10.977Z,16.6
2022-10-01T19:58:08.818Z,16.4
2022-10-01T20:03:06.893Z,16.2
2022-10-01T20:08:04.980Z,16.2
2022-10-01T20:13:02.905Z,16.1
2022-10-01T20:18:00.743Z,16
2022-10-01T20:22:58.723Z,16
2022-10-01T20:27:56.906Z,16
2022-10-01T20:32:54.970Z,16.1
2022-10-01T20:37:53.173Z,16.1
2022-10-01T20:42:50.781Z,16.1
2022-10-01T20:47:48.896Z,16
2022-10-01T20:52:46.887Z,16
2022-10-01T20:57:44.941Z,16
2022-10-01T21:02:43.058Z,15.9
2022-10-01T21:07:41.218Z,16
2022-10-01T21:12:39.660Z,16
2022-10-01T21:17:37.723Z,16
2022-10-01T21:22:35.874Z,16.1
2022-10-01T21:27:34.170Z,16
2022-10-01T21:32:32.224Z,16
2022-10-01T21:37:30.231Z,15.9
2022-10-01T21:42:28.359Z,15.9
2022-10-01T21:47:26.579Z,15.9
2022-10-01T21:52:24.733Z,15.8
2022-10-01T21:57:22.920Z,15.8
2022-10-01T22:02:21.226Z,15.9
2022-10-01T22:07:19.643Z,15.8
2022-10-01T22:12:17.776Z,15.7
2022-10-01T22:17:15.874Z,15.6
2022-10-01T22:22:13.937Z,15.6
2022-10-01T22:27:12.233Z,15.6
2022-10-01T22:32:10.288Z,15.7
2022-10-01T22:37:08.349Z,15.7
2022-10-01T22:42:06.498Z,15.6
2022-10-01T22:47:04.758Z,15.5
2022-10-01T22:52:02.748Z,15.4
2022-10-01T22:57:01.166Z,15.3
2022-10-01T23:01:59.247Z,15.4
2022-10-01T23:06:57.495Z,15.5
2022-10-01T23:11:55.543Z,15.5
2022-10-01T23:16:53.450Z,15.4
2022-10-01T23:21:51.529Z,15.3
2022-10-01T23:26:49.600Z,15.2
2022-10-01T23:31:47.699Z,15.2
2022-10-01T23:36:45.619Z,15.1
2022-10-01T23:41:43.770Z,15.1
2022-10-01T23:46:41.959Z,15.2
2022-10-01T23:51:40.226Z,15.3
2022-10-01T23:56:38.577Z,15.3
